createdAt,value
2019-02-22T00:00:46.663Z,14.70
2019-02-22T00:03:15.142Z,15.00
2019-02-22T00:05:43.614Z,13.67
2019-02-22T00:08:12.097Z,14.40
2019-02-22T00:10:40.561Z,14.70
2019-02-22T00:13:09.031Z,12.03
2019-02-22T00:15:37.530Z,15.17
2019-02-22T00:18:05.976Z,13.00
2019-02-22T00:20:34.429Z,14.27
2019-02-22T00:23:02.921Z,10.30
2019-02-22T00:25:31.370Z,7.60
2019-02-22T00:27:59.823Z,8.50
2019-02-22T00:30:28.324Z,7.73
2019-02-22T00:32:56.773Z,6.40
2019-02-22T00:35:25.327Z,5.47
2019-02-22T00:37:53.798Z,5.47
2019-02-22T00:40:22.265Z,5.77
2019-02-22T00:42:50.722Z,4.70
2019-02-22T00:45:19.220Z,5.10
2019-02-22T00:47:47.665Z,4.87
2019-02-22T00:50:16.112Z,3.50
2019-02-22T00:52:44.591Z,2.80
2019-02-22T00:55:13.048Z,2.20
2019-02-22T00:57:41.827Z,2.40
2019-02-22T01:00:10.688Z,2.30
2019-02-22T01:02:39.147Z,2.23
2019-02-22T01:05:07.664Z,2.07
2019-02-22T01:07:36.149Z,1.90
2019-02-22T01:10:05.697Z,1.90
2019-02-22T01:12:34.146Z,1.77
2019-02-22T01:15:02.641Z,2.13
2019-02-22T01:17:31.095Z,2.30
2019-02-22T01:19:59.531Z,1.90
2019-02-22T01:22:28.033Z,1.93
2019-02-22T01:24:56.479Z,2.80
2019-02-22T01:27:24.926Z,3.40
2019-02-22T01:29:53.431Z,3.10
2019-02-22T01:32:21.892Z,3.47
2019-02-22T01:34:50.335Z,2.97
2019-02-22T01:37:18.836Z,3.27
2019-02-22T01:39:47.297Z,3.00
2019-02-22T01:42:15.753Z,3.50
2019-02-22T01:44:44.238Z,3.70
2019-02-22T01:47:12.685Z,3.70
2019-02-22T01:49:41.152Z,4.00
2019-02-22T01:52:09.681Z,4.13
2019-02-22T01:54:38.096Z,3.23
2019-02-22T01:57:06.549Z,4.03
2019-02-22T01:59:36.063Z,3.50
2019-02-22T02:02:04.669Z,4.00
2019-02-22T02:04:33.130Z,3.97
2019-02-22T02:07:01.615Z,3.13
2019-02-22T02:09:30.150Z,3.87
2019-02-22T02:11:58.603Z,3.33
2019-02-22T02:14:27.108Z,1.97
2019-02-22T02:16:55.583Z,2.80
2019-02-22T02:19:24.115Z,2.07
2019-02-22T02:21:52.626Z,2.73
2019-02-22T02:24:21.078Z,2.77
2019-02-22T02:26:49.514Z,2.40
2019-02-22T02:29:17.988Z,2.70
2019-02-22T02:31:46.448Z,2.07
2019-02-22T02:34:14.919Z,2.47
2019-02-22T02:36:43.400Z,2.03
2019-02-22T02:39:11.846Z,3.00
2019-02-22T02:41:40.290Z,2.10
2019-02-22T02:44:08.783Z,2.20
2019-02-22T02:46:37.231Z,2.50
2019-02-22T02:49:05.675Z,2.33
2019-02-22T02:51:34.165Z,1.87
2019-02-22T02:54:02.618Z,1.83
2019-02-22T02:56:31.071Z,1.67
2019-02-22T02:58:59.585Z,2.00
2019-02-22T03:01:28.997Z,2.03
2019-02-22T03:03:57.518Z,2.27
2019-02-22T03:06:33.883Z,2.13
2019-02-22T03:09:02.334Z,2.00
2019-02-22T03:11:30.810Z,2.87
2019-02-22T03:13:59.348Z,2.77
2019-02-22T03:16:27.803Z,2.27
2019-02-22T03:18:56.273Z,2.17
2019-02-22T03:21:24.899Z,2.87
2019-02-22T03:23:53.379Z,2.57
2019-02-22T03:26:21.845Z,2.70
2019-02-22T03:28:50.341Z,2.67
2019-02-22T03:31:18.805Z,2.93
2019-02-22T03:33:47.338Z,3.53
2019-02-22T03:36:15.821Z,2.50
2019-02-22T03:38:44.304Z,2.00
2019-02-22T03:41:12.753Z,2.07
2019-02-22T03:43:41.244Z,2.97
2019-02-22T03:46:09.700Z,2.50
2019-02-22T03:48:38.162Z,2.30
2019-02-22T03:51:06.658Z,2.67
2019-02-22T03:53:36.739Z,2.37
2019-02-22T03:56:05.194Z,2.40
2019-02-22T03:58:33.702Z,2.40
2019-02-22T04:01:02.158Z,1.80
2019-02-22T04:03:30.784Z,2.30
2019-02-22T04:05:59.737Z,2.33
2019-02-22T04:08:28.188Z,2.50
2019-02-22T04:10:56.635Z,2.53
2019-02-22T04:13:25.127Z,1.90
2019-02-22T04:15:53.567Z,2.43
2019-02-22T04:18:22.019Z,1.83
2019-02-22T04:20:50.504Z,2.40
2019-02-22T04:23:18.962Z,2.23
2019-02-22T04:25:47.412Z,2.33
2019-02-22T04:28:15.875Z,2.00
2019-02-22T04:30:44.329Z,1.50
2019-02-22T04:33:12.795Z,1.80
2019-02-22T04:35:41.278Z,1.90
2019-02-22T04:38:09.733Z,1.67
2019-02-22T04:40:38.190Z,2.10
2019-02-22T04:43:06.682Z,2.57
2019-02-22T04:45:35.131Z,2.30
2019-02-22T04:48:03.629Z,2.33
2019-02-22T04:50:32.142Z,2.37
2019-02-22T04:53:00.599Z,2.40
2019-02-22T04:55:29.412Z,2.47
2019-02-22T04:57:58.039Z,3.23
2019-02-22T05:00:26.503Z,2.47
2019-02-22T05:02:54.957Z,2.20
2019-02-22T05:05:23.759Z,2.80
2019-02-22T05:07:52.236Z,2.33
2019-02-22T05:10:20.697Z,2.23
2019-02-22T05:12:49.204Z,1.90
2019-02-22T05:15:17.673Z,2.67
2019-02-22T05:17:47.214Z,2.43
2019-02-22T05:20:15.711Z,2.60
2019-02-22T05:22:44.178Z,2.03
2019-02-22T05:25:12.631Z,1.90
2019-02-22T05:27:41.136Z,2.73
2019-02-22T05:30:09.585Z,2.30
2019-02-22T05:32:38.051Z,2.23
2019-02-22T05:35:06.691Z,2.83
2019-02-22T05:37:35.148Z,2.70
2019-02-22T05:40:03.605Z,3.10
2019-02-22T05:42:32.087Z,3.23
2019-02-22T05:45:00.625Z,2.70
2019-02-22T05:47:29.089Z,2.00
2019-02-22T05:49:57.565Z,2.57
2019-02-22T05:52:26.010Z,1.63
2019-02-22T05:54:54.463Z,2.30
2019-02-22T05:57:22.954Z,1.73
2019-02-22T05:59:51.411Z,1.83
2019-02-22T06:02:19.862Z,2.60
2019-02-22T06:04:48.361Z,1.50
2019-02-22T06:07:17.108Z,2.13
2019-02-22T06:09:45.564Z,1.83
2019-02-22T06:12:14.048Z,1.50
2019-02-22T06:14:42.515Z,1.67
2019-02-22T06:17:14.684Z,1.27
2019-02-22T06:19:41.167Z,1.87
2019-02-22T06:22:09.623Z,1.50
2019-02-22T06:24:38.096Z,1.53
2019-02-22T06:27:06.586Z,1.80
2019-02-22T06:29:35.045Z,1.60
2019-02-22T06:32:03.532Z,1.70
2019-02-22T06:34:32.031Z,2.00
2019-02-22T06:37:02.209Z,1.67
2019-02-22T06:39:30.658Z,2.40
2019-02-22T06:41:59.135Z,2.20
2019-02-22T06:44:27.606Z,1.73
2019-02-22T06:46:56.074Z,1.93
2019-02-22T06:49:24.560Z,2.30
2019-02-22T06:51:53.056Z,3.43
2019-02-22T06:54:21.486Z,3.30
2019-02-22T06:56:49.993Z,2.50
2019-02-22T06:59:18.449Z,3.30
2019-02-22T07:01:49.929Z,2.17
2019-02-22T07:04:17.119Z,2.43
2019-02-22T07:06:45.578Z,2.37
2019-02-22T07:09:14.377Z,2.40
2019-02-22T07:11:44.500Z,1.70
2019-02-22T07:14:12.968Z,1.97
2019-02-22T07:16:41.422Z,2.27
2019-02-22T07:19:09.939Z,2.00
2019-02-22T07:21:51.545Z,1.90
2019-02-22T07:24:08.569Z,2.13
2019-02-22T07:26:37.055Z,1.63
2019-02-22T07:29:05.511Z,1.97
2019-02-22T07:31:33.966Z,1.57
2019-02-22T07:34:02.449Z,1.97
2019-02-22T07:36:30.908Z,2.17
2019-02-22T07:38:59.369Z,2.10
2019-02-22T07:41:27.843Z,2.77
2019-02-22T07:43:56.303Z,2.00
2019-02-22T07:46:24.760Z,2.20
2019-02-22T07:48:53.266Z,2.00
2019-02-22T07:51:21.736Z,1.43
2019-02-22T07:53:50.182Z,2.00
2019-02-22T07:56:19.262Z,2.33
2019-02-22T07:58:48.090Z,2.10
2019-02-22T08:01:16.555Z,2.20
2019-02-22T08:03:45.044Z,4.30
2019-02-22T08:06:13.502Z,1.83
2019-02-22T08:08:41.953Z,2.13
2019-02-22T08:11:11.523Z,1.80
2019-02-22T08:13:39.979Z,2.10
2019-02-22T08:16:08.435Z,2.53
2019-02-22T08:18:36.933Z,1.60
2019-02-22T08:21:05.401Z,2.10
2019-02-22T08:23:35.583Z,1.77
2019-02-22T08:26:04.079Z,2.00
2019-02-22T08:28:32.525Z,1.70
2019-02-22T08:31:00.984Z,1.60
2019-02-22T08:33:29.486Z,2.63
2019-02-22T08:35:58.303Z,2.37
2019-02-22T08:38:26.752Z,2.17
2019-02-22T08:40:55.241Z,2.30
2019-02-22T08:43:31.231Z,2.03
2019-02-22T08:45:53.862Z,2.00
2019-02-22T08:48:22.646Z,2.23
2019-02-22T08:50:51.137Z,1.73
2019-02-22T08:53:19.599Z,2.10
2019-02-22T08:55:48.081Z,1.87
2019-02-22T08:58:16.541Z,3.00
2019-02-22T09:00:45.001Z,2.00
2019-02-22T09:03:13.491Z,2.30
2019-02-22T09:05:41.945Z,2.50
2019-02-22T09:08:10.401Z,1.90
2019-02-22T09:10:38.900Z,2.53
2019-02-22T09:13:09.113Z,2.20
2019-02-22T09:15:37.573Z,2.30
2019-02-22T09:18:06.071Z,1.60
2019-02-22T09:20:34.532Z,1.80
2019-02-22T09:23:02.996Z,2.37
2019-02-22T09:25:31.489Z,1.40
2019-02-22T09:27:59.938Z,1.43
2019-02-22T09:30:28.397Z,1.87
2019-02-22T09:32:56.881Z,1.90
2019-02-22T09:35:25.341Z,2.13
2019-02-22T09:37:53.787Z,2.20
2019-02-22T09:40:23.853Z,1.40
2019-02-22T09:42:52.308Z,1.70
2019-02-22T09:45:20.763Z,1.80
2019-02-22T09:47:49.266Z,1.70
2019-02-22T09:50:17.715Z,2.70
2019-02-22T09:52:46.167Z,2.00
2019-02-22T09:55:14.664Z,1.77
2019-02-22T09:57:43.117Z,1.87
2019-02-22T10:00:13.573Z,2.10
2019-02-22T10:02:44.732Z,2.00
2019-02-22T10:05:12.429Z,2.17
2019-02-22T10:07:40.846Z,2.50
2019-02-22T10:10:10.674Z,2.23
2019-02-22T10:12:39.140Z,2.03
2019-02-22T10:15:09.781Z,2.23
2019-02-22T10:17:38.339Z,1.90
2019-02-22T10:20:10.222Z,1.83
2019-02-22T10:22:38.671Z,2.20
2019-02-22T10:25:07.618Z,1.90
2019-02-22T10:27:36.062Z,1.53
2019-02-22T10:30:10.098Z,1.87
2019-02-22T10:32:38.588Z,2.00
2019-02-22T10:35:07.811Z,1.60
2019-02-22T10:37:36.280Z,2.20
2019-02-22T10:40:07.513Z,2.80
2019-02-22T10:42:35.962Z,2.90
2019-02-22T10:45:05.745Z,1.47
2019-02-22T10:47:34.241Z,2.00
2019-02-22T10:50:02.790Z,1.53
2019-02-22T10:52:31.281Z,1.87
2019-02-22T10:54:59.744Z,1.80
2019-02-22T10:57:28.205Z,1.87
2019-02-22T10:59:56.668Z,1.43
2019-02-22T11:02:25.173Z,2.30
2019-02-22T11:04:53.627Z,1.80
2019-02-22T11:07:22.083Z,1.90
2019-02-22T11:09:50.578Z,1.50
2019-02-22T11:12:19.030Z,1.57
2019-02-22T11:14:47.485Z,1.87
2019-02-22T11:17:16.264Z,1.87
2019-02-22T11:19:44.718Z,1.87
2019-02-22T11:22:13.169Z,2.00
2019-02-22T11:24:41.653Z,2.30
2019-02-22T11:27:10.116Z,2.67
2019-02-22T11:29:38.578Z,2.10
2019-02-22T11:32:07.065Z,1.80
2019-02-22T11:34:35.595Z,2.10
2019-02-22T11:37:04.431Z,2.23
2019-02-22T11:39:32.939Z,2.17
2019-02-22T11:42:01.468Z,1.60
2019-02-22T11:44:39.627Z,2.07
2019-02-22T11:47:00.244Z,1.87
2019-02-22T11:49:28.703Z,2.10
2019-02-22T11:51:57.152Z,2.60
2019-02-22T11:54:25.646Z,2.10
2019-02-22T11:56:54.097Z,2.20
2019-02-22T11:59:22.553Z,2.30
2019-02-22T12:01:51.042Z,1.60
2019-02-22T12:04:19.485Z,2.93
2019-02-22T12:06:48.107Z,2.50
2019-02-22T12:09:16.588Z,2.30
2019-02-22T12:11:45.043Z,1.67
2019-02-22T12:14:13.491Z,1.73
2019-02-22T12:16:41.961Z,2.53
2019-02-22T12:19:12.263Z,2.17
2019-02-22T12:21:40.729Z,2.00
2019-02-22T12:24:09.232Z,1.87
2019-02-22T12:26:37.685Z,2.27
2019-02-22T12:29:06.150Z,1.80
2019-02-22T12:31:34.648Z,2.03
2019-02-22T12:34:03.111Z,2.20
2019-02-22T12:36:31.559Z,2.57
2019-02-22T12:39:00.075Z,1.30
2019-02-22T12:41:28.529Z,1.87
2019-02-22T12:43:56.993Z,1.67
2019-02-22T12:46:25.474Z,1.83
2019-02-22T12:48:53.916Z,1.40
2019-02-22T12:51:22.372Z,1.77
2019-02-22T12:53:50.860Z,1.80
2019-02-22T12:56:21.591Z,2.10
2019-02-22T12:58:49.534Z,1.70
2019-02-22T13:01:18.014Z,1.90
2019-02-22T13:03:46.465Z,1.90
2019-02-22T13:06:14.910Z,1.90
2019-02-22T13:08:43.415Z,1.70
2019-02-22T13:11:11.864Z,1.87
2019-02-22T13:13:40.318Z,1.80
2019-02-22T13:16:08.805Z,1.87
2019-02-22T13:18:37.254Z,1.90
2019-02-22T13:21:05.827Z,1.63
2019-02-22T13:23:34.299Z,1.87
2019-02-22T13:26:02.753Z,1.93
2019-02-22T13:28:31.227Z,2.10
2019-02-22T13:30:59.720Z,1.90
2019-02-22T13:33:28.165Z,1.63
2019-02-22T13:35:56.614Z,1.83
2019-02-22T13:38:25.100Z,1.90
2019-02-22T13:40:53.561Z,1.70
2019-02-22T13:43:22.007Z,1.93
2019-02-22T13:45:50.576Z,1.70
2019-02-22T13:48:19.022Z,2.13
2019-02-22T13:50:47.470Z,1.90
2019-02-22T13:53:15.965Z,1.93
2019-02-22T13:55:44.411Z,1.70
2019-02-22T13:58:12.867Z,2.13
2019-02-22T14:00:41.367Z,2.33
2019-02-22T14:03:09.826Z,1.83
2019-02-22T14:05:38.285Z,1.97
2019-02-22T14:08:06.793Z,2.43
2019-02-22T14:10:35.252Z,2.03
2019-02-22T14:13:03.722Z,2.67
2019-02-22T14:15:38.023Z,1.73
2019-02-22T14:18:02.380Z,1.57
2019-02-22T14:20:30.837Z,1.73
2019-02-22T14:22:59.654Z,1.93
2019-02-22T14:25:28.101Z,2.30
2019-02-22T14:27:56.555Z,1.80
2019-02-22T14:30:25.050Z,1.90
2019-02-22T14:32:53.538Z,2.40
2019-02-22T14:35:21.969Z,2.57
2019-02-22T14:37:50.436Z,1.70
2019-02-22T14:40:18.916Z,2.10
2019-02-22T14:42:47.363Z,2.00
2019-02-22T14:45:15.847Z,2.80
2019-02-22T14:47:44.302Z,2.00
2019-02-22T14:50:19.077Z,2.40
2019-02-22T14:52:47.568Z,2.17
2019-02-22T14:55:16.089Z,2.67
2019-02-22T14:57:45.415Z,2.07
2019-02-22T15:00:16.564Z,1.93
2019-02-22T15:02:45.009Z,2.30
2019-02-22T15:05:14.507Z,3.17
2019-02-22T15:07:42.989Z,2.17
2019-02-22T15:10:12.189Z,2.13
2019-02-22T15:12:40.647Z,2.53
2019-02-22T15:15:11.971Z,2.60
2019-02-22T15:17:42.087Z,1.97
2019-02-22T15:20:10.602Z,2.33
2019-02-22T15:22:39.084Z,1.93
2019-02-22T15:25:13.894Z,2.30
2019-02-22T15:27:42.341Z,2.40
2019-02-22T15:30:13.733Z,2.40
2019-02-22T15:32:42.203Z,2.07
2019-02-22T15:35:13.388Z,2.57
2019-02-22T15:37:43.285Z,2.00
2019-02-22T15:40:13.229Z,2.20
2019-02-22T15:42:41.678Z,2.50
2019-02-22T15:45:16.908Z,2.47
2019-02-22T15:47:45.356Z,2.23
2019-02-22T15:50:17.740Z,3.17
2019-02-22T15:52:47.365Z,2.83
2019-02-22T15:55:15.861Z,2.73
2019-02-22T15:57:44.329Z,3.03
2019-02-22T16:00:19.366Z,3.33
2019-02-22T16:02:48.210Z,2.40
2019-02-22T16:05:18.372Z,2.03
2019-02-22T16:07:46.879Z,2.40
2019-02-22T16:10:15.486Z,2.53
2019-02-22T16:12:44.090Z,2.53
2019-02-22T16:15:12.812Z,2.63
2019-02-22T16:17:41.252Z,2.07
2019-02-22T16:20:09.757Z,2.83
2019-02-22T16:22:38.257Z,2.93
2019-02-22T16:25:18.499Z,3.00
2019-02-22T16:27:37.400Z,2.63
2019-02-22T16:30:15.979Z,2.60
2019-02-22T16:32:44.441Z,2.90
2019-02-22T16:35:12.975Z,3.50
2019-02-22T16:37:41.478Z,3.00
2019-02-22T16:40:11.377Z,3.80
2019-02-22T16:42:39.851Z,3.00
2019-02-22T16:45:12.424Z,3.30
2019-02-22T16:47:40.891Z,3.20
2019-02-22T16:50:11.441Z,2.97
2019-02-22T16:52:39.923Z,3.20
2019-02-22T16:55:16.077Z,4.27
2019-02-22T16:57:45.956Z,8.00
2019-02-22T17:00:16.327Z,11.37
2019-02-22T17:02:44.860Z,11.50
2019-02-22T17:05:18.112Z,9.80
2019-02-22T17:07:46.589Z,5.40
2019-02-22T17:10:15.061Z,5.43
2019-02-22T17:12:43.567Z,4.03
2019-02-22T17:15:13.460Z,4.80
2019-02-22T17:17:41.919Z,5.70
2019-02-22T17:20:14.348Z,5.50
2019-02-22T17:22:42.814Z,5.83
2019-02-22T17:25:19.458Z,4.77
2019-02-22T17:27:48.104Z,5.40
2019-02-22T17:30:19.348Z,4.77
2019-02-22T17:32:47.846Z,4.60
2019-02-22T17:35:20.377Z,4.67
2019-02-22T17:37:48.851Z,4.27
2019-02-22T17:40:22.803Z,3.13
2019-02-22T17:42:51.289Z,2.83
2019-02-22T17:45:19.739Z,3.07
2019-02-22T17:47:48.240Z,3.87
2019-02-22T17:50:16.708Z,5.37
2019-02-22T17:52:45.193Z,4.00
2019-02-22T17:55:13.705Z,3.57
2019-02-22T17:57:42.158Z,4.80
2019-02-22T18:00:17.312Z,4.20
2019-02-22T18:02:45.941Z,4.50
2019-02-22T18:05:14.482Z,4.03
2019-02-22T18:07:42.935Z,3.73
2019-02-22T18:10:11.906Z,3.70
2019-02-22T18:12:43.303Z,3.80
2019-02-22T18:15:17.161Z,3.80
2019-02-22T18:17:47.204Z,2.83
2019-02-22T18:20:15.755Z,2.80
2019-02-22T18:22:44.255Z,3.20
2019-02-22T18:25:12.863Z,2.80
2019-02-22T18:27:41.315Z,2.97
2019-02-22T18:30:13.130Z,2.17
2019-02-22T18:32:41.712Z,2.80
2019-02-22T18:35:10.329Z,2.98
2019-02-22T18:37:38.918Z,2.65
2019-02-22T18:40:15.677Z,3.30
2019-02-22T18:42:44.238Z,2.55
2019-02-22T18:45:12.922Z,3.85
2019-02-22T18:47:41.536Z,3.58
2019-02-22T18:50:12.851Z,3.45
2019-02-22T18:52:41.450Z,2.77
2019-02-22T18:55:11.621Z,3.10
2019-02-22T18:57:40.201Z,3.10
2019-02-22T19:00:11.602Z,2.98
2019-02-22T19:02:40.029Z,3.30
2019-02-22T19:05:09.454Z,3.70
2019-02-22T19:07:38.003Z,3.52
2019-02-22T19:10:09.585Z,3.02
2019-02-22T19:12:39.193Z,3.45
2019-02-22T19:15:10.640Z,3.27
2019-02-22T19:17:39.277Z,3.08
2019-02-22T19:20:10.585Z,2.95
2019-02-22T19:22:39.143Z,3.45
2019-02-22T19:25:08.835Z,3.37
2019-02-22T19:27:37.414Z,3.80
2019-02-22T19:30:15.429Z,3.87
2019-02-22T19:32:43.995Z,3.95
2019-02-22T19:35:13.706Z,3.02
2019-02-22T19:37:42.332Z,4.12
2019-02-22T19:40:19.702Z,3.00
2019-02-22T19:42:48.238Z,4.55
2019-02-22T19:45:16.773Z,4.10
2019-02-22T19:47:45.369Z,3.80
2019-02-22T19:50:14.568Z,2.50
2019-02-22T19:52:43.113Z,3.02
2019-02-22T19:55:17.144Z,3.45
2019-02-22T19:57:45.701Z,4.20
2019-02-22T20:00:19.002Z,4.80
2019-02-22T20:02:47.581Z,3.90
2019-02-22T20:05:16.296Z,4.12
2019-02-22T20:07:44.844Z,3.27
2019-02-22T20:10:18.625Z,5.60
2019-02-22T20:12:47.446Z,6.87
2019-02-22T20:15:17.047Z,7.08
2019-02-22T20:17:54.203Z,4.90
2019-02-22T20:20:20.658Z,3.20
2019-02-22T20:22:49.208Z,3.30
2019-02-22T20:25:17.848Z,4.00
2019-02-22T20:27:46.518Z,3.70
2019-02-22T20:30:19.017Z,3.35
2019-02-22T20:32:47.722Z,4.08
2019-02-22T20:35:24.282Z,3.20
2019-02-22T20:37:54.550Z,4.20
2019-02-22T20:40:23.152Z,4.20
2019-02-22T20:42:51.778Z,4.35
2019-02-22T20:45:20.432Z,3.20
2019-02-22T20:47:48.990Z,3.33
2019-02-22T20:50:17.525Z,3.52
2019-02-22T20:52:46.112Z,3.90
2019-02-22T20:55:14.771Z,3.12
2019-02-22T20:57:43.341Z,3.08
2019-02-22T21:00:15.197Z,3.30
2019-02-22T21:02:43.738Z,4.55
2019-02-22T21:05:12.327Z,4.40
2019-02-22T21:07:40.893Z,4.50
2019-02-22T21:10:14.689Z,4.33
2019-02-22T21:12:43.228Z,4.00
2019-02-22T21:15:14.892Z,4.60
2019-02-22T21:17:43.434Z,3.60
2019-02-22T21:20:14.116Z,3.17
2019-02-22T21:22:42.830Z,4.25
2019-02-22T21:25:13.118Z,3.75
2019-02-22T21:27:41.659Z,3.62
2019-02-22T21:30:20.705Z,4.83
2019-02-22T21:32:49.169Z,5.30
2019-02-22T21:35:17.791Z,4.72
2019-02-22T21:37:46.379Z,4.50
2019-02-22T21:40:15.139Z,4.40
2019-02-22T21:42:43.683Z,4.03
2019-02-22T21:45:13.487Z,3.90
2019-02-22T21:47:53.744Z,3.75
2019-02-22T21:50:18.440Z,3.90
2019-02-22T21:52:47.141Z,2.95
2019-02-22T21:55:16.242Z,3.75
2019-02-22T21:57:44.884Z,3.83
2019-02-22T22:00:19.346Z,4.55
2019-02-22T22:02:47.969Z,4.10
2019-02-22T22:05:16.575Z,3.98
2019-02-22T22:07:45.116Z,3.70
2019-02-22T22:10:13.743Z,4.08
2019-02-22T22:12:42.343Z,4.92
2019-02-22T22:15:12.735Z,5.47
2019-02-22T22:17:41.281Z,6.50
2019-02-22T22:20:10.582Z,5.72
2019-02-22T22:22:39.187Z,5.20
2019-02-22T22:25:12.635Z,4.05
2019-02-22T22:27:41.235Z,3.80
2019-02-22T22:30:14.515Z,3.47
2019-02-22T22:32:43.156Z,4.00
2019-02-22T22:35:16.427Z,4.33
2019-02-22T22:37:44.994Z,3.92
2019-02-22T22:40:13.541Z,6.20
2019-02-22T22:42:42.390Z,4.30
2019-02-22T22:45:12.605Z,4.80
2019-02-22T22:47:41.120Z,3.90
2019-02-22T22:50:11.689Z,3.85
2019-02-22T22:52:40.214Z,3.85
2019-02-22T22:55:10.184Z,4.05
2019-02-22T22:57:38.752Z,3.72
2019-02-22T23:00:29.920Z,4.33
2019-02-22T23:02:58.495Z,4.10
2019-02-22T23:05:27.051Z,3.85
2019-02-22T23:07:55.604Z,3.80
2019-02-22T23:10:24.194Z,3.87
2019-02-22T23:12:52.805Z,4.12
2019-02-22T23:15:21.350Z,3.90
2019-02-22T23:17:49.928Z,3.92
2019-02-22T23:20:18.482Z,3.52
2019-02-22T23:22:47.024Z,4.60
2019-02-22T23:25:15.610Z,4.30
2019-02-22T23:27:44.154Z,4.40
2019-02-22T23:30:12.772Z,4.58
2019-02-22T23:32:41.373Z,4.05
2019-02-22T23:35:09.959Z,3.80
2019-02-22T23:37:38.520Z,4.20
2019-02-22T23:40:07.082Z,4.50
2019-02-22T23:42:35.608Z,4.33
2019-02-22T23:45:05.964Z,4.28
2019-02-22T23:47:34.552Z,4.65
2019-02-22T23:50:03.280Z,4.43
2019-02-22T23:52:33.876Z,4.60
2019-02-22T23:55:02.109Z,4.22
2019-02-22T23:57:30.643Z,4.50
2019-02-22T23:59:59.185Z,3.60
